createdAt,value
2022-10-26T00:00:39.137Z,11.10
2022-10-26T00:04:01.266Z,9.53
2022-10-26T00:07:03.254Z,10.57
2022-10-26T00:10:05.769Z,10.13
2022-10-26T00:13:12.646Z,14.03
2022-10-26T00:16:28.879Z,13.37
2022-10-26T00:19:34.141Z,10.70
2022-10-26T00:22:36.250Z,13.23
2022-10-26T00:25:38.464Z,12.50
2022-10-26T00:28:43.227Z,14.13
2022-10-26T00:31:45.242Z,12.80
2022-10-26T00:34:47.357Z,13.90
2022-10-26T00:37:49.492Z,10.63
2022-10-26T00:40:51.855Z,9.57
2022-10-26T00:43:54.956Z,14.57
2022-10-26T00:46:57.127Z,10.33
2022-10-26T00:50:04.543Z,15.30
2022-10-26T00:53:07.013Z,11.27
2022-10-26T00:56:09.254Z,10.80
2022-10-26T00:59:13.720Z,8.77
2022-10-26T01:02:15.603Z,8.30
2022-10-26T01:05:19.197Z,10.77
2022-10-26T01:08:21.405Z,8.67
2022-10-26T01:11:23.893Z,10.73
2022-10-26T01:14:28.316Z,8.90
2022-10-26T01:17:56.657Z,8.47
2022-10-26T01:21:20.009Z,8.30
2022-10-26T01:24:43.504Z,10.57
2022-10-26T01:27:51.439Z,9.23
2022-10-26T01:30:57.853Z,10.07
2022-10-26T01:34:46.363Z,9.63
2022-10-26T01:38:11.528Z,13.97
2022-10-26T01:41:33.354Z,19.63
2022-10-26T01:44:42.431Z,17.83
2022-10-26T01:47:47.929Z,14.97
2022-10-26T01:50:53.348Z,10.60
2022-10-26T01:53:56.069Z,13.33
2022-10-26T01:57:04.167Z,14.73
2022-10-26T02:00:09.877Z,20.57
2022-10-26T02:03:15.047Z,20.60
2022-10-26T02:06:30.816Z,13.30
2022-10-26T02:09:35.660Z,14.23
2022-10-26T02:12:56.232Z,13.97
2022-10-26T02:16:01.832Z,11.87
2022-10-26T02:19:09.599Z,14.03
2022-10-26T02:22:36.816Z,14.30
2022-10-26T02:25:44.745Z,10.60
2022-10-26T02:28:50.789Z,9.90
2022-10-26T02:31:54.039Z,11.00
2022-10-26T02:34:58.878Z,10.47
2022-10-26T02:38:04.747Z,11.27
2022-10-26T02:41:08.211Z,13.97
2022-10-26T02:44:28.851Z,15.80
2022-10-26T02:47:31.353Z,20.57
2022-10-26T02:50:39.848Z,11.47
2022-10-26T02:53:57.832Z,15.60
2022-10-26T02:57:24.981Z,15.17
2022-10-26T03:00:27.205Z,16.03
2022-10-26T03:03:29.280Z,18.53
2022-10-26T03:06:31.375Z,17.47
2022-10-26T03:09:33.340Z,9.80
2022-10-26T03:12:35.410Z,14.10
2022-10-26T03:15:37.525Z,15.93
2022-10-26T03:18:39.640Z,9.60
2022-10-26T03:21:42.397Z,9.10
2022-10-26T03:24:44.583Z,10.10
2022-10-26T03:27:46.689Z,9.77
2022-10-26T03:30:49.010Z,8.30
2022-10-26T03:33:50.975Z,8.53
2022-10-26T03:36:53.051Z,9.33
2022-10-26T03:39:55.031Z,9.23
2022-10-26T03:42:57.133Z,10.30
2022-10-26T03:45:59.107Z,9.50
2022-10-26T03:49:01.273Z,10.13
2022-10-26T03:52:03.329Z,8.50
2022-10-26T03:55:06.773Z,9.03
2022-10-26T03:58:08.649Z,10.27
2022-10-26T04:01:10.953Z,13.03
2022-10-26T04:04:12.964Z,12.10
2022-10-26T04:07:15.264Z,14.50
2022-10-26T04:10:17.146Z,15.43
2022-10-26T04:13:19.262Z,22.80
2022-10-26T04:16:22.128Z,30.83
2022-10-26T04:19:24.369Z,31.57
2022-10-26T04:22:26.461Z,35.93
2022-10-26T04:25:32.791Z,17.77
2022-10-26T04:28:35.374Z,23.77
2022-10-26T04:31:37.559Z,25.37
2022-10-26T04:34:39.476Z,26.30
2022-10-26T04:37:41.598Z,18.13
2022-10-26T04:40:43.562Z,21.33
2022-10-26T04:43:45.626Z,13.07
2022-10-26T04:46:47.768Z,12.63
2022-10-26T04:49:49.934Z,18.47
2022-10-26T04:52:52.108Z,22.33
2022-10-26T04:55:58.482Z,22.17
2022-10-26T04:59:00.403Z,24.60
2022-10-26T05:02:02.748Z,30.23
2022-10-26T05:05:06.906Z,32.07
2022-10-26T05:08:11.087Z,28.17
2022-10-26T05:11:12.996Z,45.67
2022-10-26T05:14:15.137Z,24.73
2022-10-26T05:17:17.044Z,21.80
2022-10-26T05:20:19.239Z,21.33
2022-10-26T05:23:22.161Z,23.10
2022-10-26T05:26:24.781Z,18.80
2022-10-26T05:29:26.736Z,30.23
2022-10-26T05:32:28.872Z,25.30
2022-10-26T05:35:32.097Z,18.07
2022-10-26T05:38:34.495Z,23.50
2022-10-26T05:41:36.355Z,28.57
2022-10-26T05:44:38.454Z,15.27
2022-10-26T05:47:41.558Z,23.27
2022-10-26T05:50:43.855Z,21.80
2022-10-26T05:53:46.040Z,18.37
2022-10-26T05:56:48.425Z,25.67
2022-10-26T05:59:50.693Z,24.33
2022-10-26T06:03:20.763Z,19.57
2022-10-26T06:06:23.457Z,23.20
2022-10-26T06:09:25.917Z,22.17
2022-10-26T06:12:28.148Z,15.10
2022-10-26T06:15:32.642Z,17.13
2022-10-26T06:18:42.958Z,15.67
2022-10-26T06:21:47.900Z,11.50
2022-10-26T06:24:55.429Z,14.57
2022-10-26T06:28:22.124Z,13.43
2022-10-26T06:31:24.334Z,13.77
2022-10-26T06:34:33.068Z,11.63
2022-10-26T06:37:36.623Z,25.57
2022-10-26T06:40:42.660Z,20.40
2022-10-26T06:43:44.893Z,35.53
2022-10-26T06:46:53.100Z,25.53
2022-10-26T06:50:09.761Z,19.30
2022-10-26T06:53:27.790Z,19.90
2022-10-26T06:56:36.636Z,11.20
2022-10-26T07:00:16.671Z,11.17
2022-10-26T07:03:18.712Z,18.63
2022-10-26T07:06:25.894Z,20.13
2022-10-26T07:09:30.611Z,21.93
2022-10-26T07:12:33.183Z,21.97
2022-10-26T07:15:37.032Z,17.33
2022-10-26T07:18:39.336Z,30.67
2022-10-26T07:21:41.264Z,29.17
2022-10-26T07:24:43.444Z,13.90
2022-10-26T07:27:45.357Z,13.37
2022-10-26T07:30:47.532Z,13.20
2022-10-26T07:33:49.473Z,12.33
2022-10-26T07:36:51.669Z,15.23
2022-10-26T07:39:57.047Z,12.67
2022-10-26T07:43:00.693Z,15.77
2022-10-26T07:46:02.920Z,14.60
2022-10-26T07:49:05.045Z,11.82
2022-10-26T07:52:07.028Z,13.07
2022-10-26T07:55:10.995Z,15.60
2022-10-26T07:58:13.196Z,14.60
2022-10-26T08:01:16.055Z,14.60
2022-10-26T08:04:18.309Z,15.00
2022-10-26T08:07:21.720Z,13.75
2022-10-26T08:10:26.568Z,13.98
2022-10-26T08:13:29.064Z,16.75
2022-10-26T08:16:31.447Z,14.77
2022-10-26T08:19:34.740Z,14.52
2022-10-26T08:22:39.612Z,16.85
2022-10-26T08:25:41.673Z,15.00
2022-10-26T08:28:43.601Z,13.77
2022-10-26T08:31:47.972Z,14.73
2022-10-26T08:34:49.955Z,17.27
2022-10-26T08:37:53.167Z,15.52
2022-10-26T08:40:57.796Z,15.30
2022-10-26T08:44:20.937Z,17.15
2022-10-26T08:47:30.050Z,15.93
2022-10-26T08:50:40.534Z,15.70
2022-10-26T08:53:54.393Z,15.73
2022-10-26T08:57:00.461Z,40.25
2022-10-26T09:00:15.594Z,18.10
2022-10-26T09:03:18.889Z,19.60
2022-10-26T09:06:45.474Z,21.70
2022-10-26T09:10:11.461Z,20.30
2022-10-26T09:13:23.909Z,18.90
2022-10-26T09:16:33.673Z,19.38
2022-10-26T09:19:47.662Z,17.20
2022-10-26T09:23:27.600Z,19.95
2022-10-26T09:26:32.553Z,16.92
2022-10-26T09:29:41.739Z,20.92
2022-10-26T09:32:47.696Z,41.03
2022-10-26T09:35:54.555Z,17.35
2022-10-26T09:39:03.297Z,17.15
2022-10-26T09:42:18.391Z,16.17
2022-10-26T09:45:30.085Z,14.98
2022-10-26T09:48:56.046Z,17.92
2022-10-26T09:51:58.334Z,17.05
2022-10-26T09:55:00.514Z,15.32
2022-10-26T09:58:06.317Z,17.08
2022-10-26T10:01:21.867Z,15.35
2022-10-26T10:04:24.162Z,13.85
2022-10-26T10:07:26.256Z,15.82
2022-10-26T10:10:28.219Z,19.23
2022-10-26T10:13:33.328Z,19.25
2022-10-26T10:16:36.060Z,13.65
2022-10-26T10:19:39.260Z,14.43
2022-10-26T10:22:57.571Z,11.05
2022-10-26T10:26:18.021Z,12.05
2022-10-26T10:29:19.900Z,12.25
2022-10-26T10:32:35.810Z,12.73
2022-10-26T10:35:49.800Z,12.38
2022-10-26T10:38:53.992Z,13.02
2022-10-26T10:41:57.160Z,13.90
2022-10-26T10:45:00.625Z,12.98
2022-10-26T10:48:02.481Z,9.10
2022-10-26T10:51:12.472Z,12.52
2022-10-26T10:54:38.986Z,10.88
2022-10-26T10:57:57.917Z,10.45
2022-10-26T11:00:59.828Z,12.23
2022-10-26T11:04:39.107Z,9.30
2022-10-26T11:08:07.355Z,12.15
2022-10-26T11:11:23.156Z,10.98
2022-10-26T11:14:29.742Z,11.45
2022-10-26T11:17:57.346Z,10.05
2022-10-26T11:21:20.783Z,9.45
2022-10-26T11:24:25.745Z,11.20
2022-10-26T11:27:39.829Z,9.40
2022-10-26T11:30:49.135Z,9.30
2022-10-26T11:34:13.523Z,9.23
2022-10-26T11:37:19.639Z,9.82
2022-10-26T11:40:44.741Z,10.10
2022-10-26T11:44:09.198Z,10.07
2022-10-26T11:47:22.303Z,12.63
2022-10-26T11:50:29.472Z,10.65
2022-10-26T11:53:38.683Z,9.55
2022-10-26T11:56:48.548Z,8.38
2022-10-26T12:00:13.213Z,8.55
2022-10-26T12:03:19.873Z,8.30
2022-10-26T12:06:27.481Z,8.57
2022-10-26T12:09:35.739Z,9.65
2022-10-26T12:12:56.416Z,11.63
2022-10-26T12:16:03.952Z,10.02
2022-10-26T12:19:20.151Z,8.45
2022-10-26T12:22:29.269Z,13.57
2022-10-26T12:25:31.535Z,14.13
2022-10-26T12:28:36.352Z,12.15
2022-10-26T12:31:38.328Z,11.45
2022-10-26T12:34:40.440Z,8.05
2022-10-26T12:37:42.399Z,11.32
2022-10-26T12:40:44.975Z,10.85
2022-10-26T12:43:47.410Z,8.95
2022-10-26T12:46:49.752Z,7.82
2022-10-26T12:50:07.008Z,8.55
2022-10-26T12:53:18.353Z,10.38
2022-10-26T12:56:28.618Z,11.43
2022-10-26T12:59:56.776Z,10.23
2022-10-26T13:03:24.065Z,14.20
2022-10-26T13:06:47.303Z,14.27
2022-10-26T13:10:05.768Z,7.82
2022-10-26T13:13:08.915Z,10.18
2022-10-26T13:16:13.169Z,7.20
2022-10-26T13:19:54.999Z,8.52
2022-10-26T13:22:57.609Z,6.13
2022-10-26T13:26:05.741Z,6.72
2022-10-26T13:29:10.594Z,8.02
2022-10-26T13:32:14.209Z,9.15
2022-10-26T13:35:17.909Z,5.00
2022-10-26T13:38:23.341Z,12.18
2022-10-26T13:41:36.504Z,5.35
2022-10-26T13:44:53.996Z,8.48
2022-10-26T13:48:03.178Z,6.90
2022-10-26T13:51:35.168Z,6.32
2022-10-26T13:54:44.839Z,10.10
2022-10-26T13:58:21.927Z,6.25
2022-10-26T14:01:25.477Z,4.55
2022-10-26T14:04:28.654Z,6.22
2022-10-26T14:07:39.997Z,6.10
2022-10-26T14:10:45.580Z,8.35
2022-10-26T14:13:50.167Z,7.30
2022-10-26T14:16:54.130Z,6.85
2022-10-26T14:19:56.134Z,17.20
2022-10-26T14:22:58.288Z,10.55
2022-10-26T14:26:00.271Z,11.57
2022-10-26T14:29:02.529Z,10.00
2022-10-26T14:32:37.995Z,12.27
2022-10-26T14:35:42.111Z,10.02
2022-10-26T14:38:47.668Z,10.73
2022-10-26T14:41:52.929Z,6.72
2022-10-26T14:44:55.418Z,13.48
2022-10-26T14:47:59.104Z,8.68
2022-10-26T14:51:18.824Z,14.77
2022-10-26T14:54:23.627Z,11.75
2022-10-26T14:57:36.647Z,8.98
2022-10-26T15:00:38.787Z,12.07
2022-10-26T15:03:42.148Z,10.52
2022-10-26T15:06:46.251Z,9.63
2022-10-26T15:09:53.159Z,9.10
2022-10-26T15:12:55.307Z,9.77
2022-10-26T15:16:31.252Z,10.68
2022-10-26T15:19:33.824Z,6.80
2022-10-26T15:22:43.547Z,8.43
2022-10-26T15:26:02.680Z,20.23
2022-10-26T15:29:04.696Z,8.13
2022-10-26T15:32:18.877Z,21.88
2022-10-26T15:35:24.230Z,9.20
2022-10-26T15:38:29.812Z,9.25
2022-10-26T15:41:38.845Z,11.50
2022-10-26T15:44:43.654Z,17.65
2022-10-26T15:47:47.230Z,14.18
2022-10-26T15:50:49.391Z,15.20
2022-10-26T15:53:51.795Z,15.27
2022-10-26T15:56:53.990Z,15.70
2022-10-26T15:59:55.991Z,24.20
2022-10-26T16:02:58.131Z,22.58
2022-10-26T16:06:02.214Z,17.53
2022-10-26T16:09:06.245Z,20.00
2022-10-26T16:12:11.703Z,21.42
2022-10-26T16:15:22.488Z,25.02
2022-10-26T16:18:24.819Z,26.23
2022-10-26T16:21:26.909Z,25.70
2022-10-26T16:24:31.054Z,29.03
2022-10-26T16:27:33.116Z,47.57
2022-10-26T16:30:36.945Z,66.83
2022-10-26T16:33:39.216Z,53.57
2022-10-26T16:36:41.303Z,33.53
2022-10-26T16:39:43.382Z,30.90
2022-10-26T16:42:45.573Z,31.40
2022-10-26T16:45:47.708Z,31.53
2022-10-26T16:48:50.516Z,23.97
2022-10-26T16:51:52.654Z,23.83
2022-10-26T16:54:54.985Z,25.70
2022-10-26T16:57:57.048Z,16.77
2022-10-26T17:00:58.981Z,19.17
2022-10-26T17:04:04.658Z,18.93
2022-10-26T17:07:06.622Z,23.83
2022-10-26T17:10:09.298Z,23.43
2022-10-26T17:13:11.285Z,24.53
2022-10-26T17:16:16.354Z,16.27
2022-10-26T17:19:18.482Z,26.00
2022-10-26T17:22:35.388Z,15.90
2022-10-26T17:25:38.786Z,12.00
2022-10-26T17:28:41.488Z,13.27
2022-10-26T17:31:43.936Z,18.23
2022-10-26T17:34:46.707Z,20.20
2022-10-26T17:37:49.523Z,20.57
2022-10-26T17:40:52.413Z,15.00
2022-10-26T17:43:55.064Z,12.53
2022-10-26T17:46:57.693Z,18.90
2022-10-26T17:50:00.307Z,17.60
2022-10-26T17:53:03.017Z,15.87
2022-10-26T17:56:12.524Z,19.33
2022-10-26T17:59:15.096Z,17.47
2022-10-26T18:02:17.757Z,14.30
2022-10-26T18:05:23.357Z,31.70
2022-10-26T18:08:25.662Z,19.23
2022-10-26T18:11:28.652Z,27.57
2022-10-26T18:14:31.461Z,27.87
2022-10-26T18:17:34.541Z,30.00
2022-10-26T18:20:37.133Z,23.50
2022-10-26T18:23:39.819Z,20.33
2022-10-26T18:26:42.208Z,37.30
2022-10-26T18:29:44.865Z,37.23
2022-10-26T18:32:50.005Z,35.47
2022-10-26T18:35:52.771Z,38.57
2022-10-26T18:38:55.708Z,47.00
2022-10-26T18:41:58.553Z,51.53
2022-10-26T18:45:03.227Z,63.70
2022-10-26T18:48:06.304Z,85.87
2022-10-26T18:51:11.837Z,79.30
2022-10-26T18:54:14.836Z,65.30
2022-10-26T18:57:24.615Z,69.13
2022-10-26T19:00:27.582Z,63.30
2022-10-26T19:03:30.411Z,62.73
2022-10-26T19:06:38.417Z,61.60
2022-10-26T19:09:40.864Z,58.87
2022-10-26T19:12:43.229Z,68.23
2022-10-26T19:15:50.167Z,56.67
2022-10-26T19:22:01.050Z,63.07
2022-10-26T19:25:03.867Z,64.07
2022-10-26T19:28:06.000Z,61.37
2022-10-26T19:31:11.172Z,65.47
2022-10-26T19:34:14.399Z,70.00
2022-10-26T19:37:16.466Z,74.80
2022-10-26T19:40:18.352Z,60.80
2022-10-26T19:43:20.483Z,48.00
2022-10-26T19:46:27.931Z,48.00
2022-10-26T19:49:30.129Z,35.30
2022-10-26T19:52:32.015Z,34.43
2022-10-26T19:55:34.662Z,35.30
2022-10-26T19:58:37.750Z,38.00
2022-10-26T20:01:40.211Z,41.97
2022-10-26T20:04:43.573Z,38.23
2022-10-26T20:07:46.064Z,38.77
2022-10-26T20:10:48.320Z,39.33
2022-10-26T20:13:50.613Z,34.50
2022-10-26T20:16:54.545Z,42.60
2022-10-26T20:19:57.098Z,30.13
2022-10-26T20:22:59.841Z,32.87
2022-10-26T20:26:03.337Z,33.07
2022-10-26T20:29:05.583Z,36.73
2022-10-26T20:32:07.946Z,32.03
2022-10-26T20:35:10.241Z,31.43
2022-10-26T20:38:21.458Z,36.23
2022-10-26T20:41:23.728Z,36.13
2022-10-26T20:44:30.911Z,41.17
2022-10-26T20:47:33.242Z,38.60
2022-10-26T20:50:35.726Z,34.67
2022-10-26T20:53:49.012Z,33.80
2022-10-26T20:56:51.538Z,32.33
2022-10-26T20:59:59.177Z,35.37
2022-10-26T21:03:01.538Z,33.27
2022-10-26T21:06:03.618Z,42.93
2022-10-26T21:09:06.532Z,33.30
2022-10-26T21:12:08.404Z,36.80
2022-10-26T21:15:12.088Z,33.93
2022-10-26T21:18:14.040Z,32.60
2022-10-26T21:21:16.184Z,38.47
2022-10-26T21:24:18.045Z,39.83
2022-10-26T21:27:20.238Z,37.63
2022-10-26T21:30:22.591Z,28.97
2022-10-26T21:33:31.881Z,40.57
2022-10-26T21:36:33.791Z,34.87
2022-10-26T21:39:35.890Z,41.37
2022-10-26T21:42:37.808Z,39.10
2022-10-26T21:45:39.887Z,36.93
2022-10-26T21:48:42.130Z,36.57
2022-10-26T21:51:44.289Z,32.90
2022-10-26T21:54:46.223Z,36.83
2022-10-26T21:57:48.764Z,38.13
2022-10-26T22:00:50.781Z,42.70
2022-10-26T22:03:52.891Z,44.87
2022-10-26T22:06:54.860Z,54.37
2022-10-26T22:10:10.361Z,42.53
2022-10-26T22:13:13.048Z,39.40
2022-10-26T22:16:20.928Z,39.53
2022-10-26T22:19:22.865Z,57.93
2022-10-26T22:22:24.929Z,40.17
2022-10-26T22:25:26.930Z,40.80
2022-10-26T22:28:32.029Z,47.03
2022-10-26T22:31:37.875Z,37.83
2022-10-26T22:34:39.941Z,40.77
2022-10-26T22:37:44.505Z,39.07
2022-10-26T22:40:55.121Z,38.33
2022-10-26T22:43:57.001Z,41.47
2022-10-26T22:46:59.656Z,46.70
2022-10-26T22:50:01.589Z,37.73
2022-10-26T22:53:03.810Z,42.00
2022-10-26T22:56:07.914Z,37.90
2022-10-26T22:59:10.040Z,32.30
2022-10-26T23:02:12.032Z,38.80
2022-10-26T23:05:14.278Z,43.83
2022-10-26T23:08:16.226Z,35.73
2022-10-26T23:11:21.066Z,32.40
2022-10-26T23:14:23.073Z,30.50
2022-10-26T23:17:25.153Z,28.57
2022-10-26T23:20:27.025Z,34.33
2022-10-26T23:23:29.277Z,27.07
2022-10-26T23:26:31.258Z,29.03
2022-10-26T23:29:33.405Z,30.77
2022-10-26T23:32:36.790Z,31.07
2022-10-26T23:35:40.346Z,31.70
2022-10-26T23:38:42.226Z,35.17
2022-10-26T23:41:44.306Z,32.30
2022-10-26T23:44:46.162Z,29.60
2022-10-26T23:47:48.979Z,29.93
2022-10-26T23:50:52.515Z,26.97
2022-10-26T23:53:54.646Z,29.33
2022-10-26T23:56:56.552Z,37.97
2022-10-26T23:59:58.646Z,49.93
